createdAt,value
2018-09-06T00:01:22.409Z,96713.87
2018-09-06T00:03:50.765Z,96711.73
2018-09-06T00:06:19.173Z,96709.21
2018-09-06T00:08:47.557Z,96713.33
2018-09-06T00:11:15.989Z,96708.92
2018-09-06T00:13:44.348Z,96711.26
2018-09-06T00:16:12.725Z,96704.31
2018-09-06T00:18:41.072Z,96703.71
2018-09-06T00:21:09.484Z,96701.52
2018-09-06T00:23:37.825Z,96701.00
2018-09-06T00:26:06.569Z,96704.89
2018-09-06T00:28:34.920Z,96702.11
2018-09-06T00:31:03.289Z,96701.83
2018-09-06T00:33:31.665Z,96701.14
2018-09-06T00:36:00.005Z,96704.80
2018-09-06T00:38:28.389Z,96702.22
2018-09-06T00:40:56.782Z,96693.20
2018-09-06T00:43:25.145Z,96693.66
2018-09-06T00:45:53.483Z,96699.33
2018-09-06T00:48:22.336Z,96695.42
2018-09-06T00:50:50.680Z,96698.52
2018-09-06T00:53:19.056Z,96699.06
2018-09-06T00:55:47.440Z,96706.11
2018-09-06T00:58:15.797Z,96710.33
2018-09-06T01:00:44.133Z,96704.09
2018-09-06T01:03:12.483Z,96710.59
2018-09-06T01:05:40.805Z,96704.63
2018-09-06T01:08:09.169Z,96707.87
2018-09-06T01:10:37.524Z,96701.39
2018-09-06T01:13:05.912Z,96704.38
2018-09-06T01:15:34.243Z,96708.34
2018-09-06T01:18:02.596Z,96701.20
2018-09-06T01:20:30.932Z,96702.14
2018-09-06T01:22:59.300Z,96702.49
2018-09-06T01:25:31.792Z,96698.37
2018-09-06T01:28:00.156Z,96693.56
2018-09-06T01:30:28.516Z,96699.56
2018-09-06T01:32:56.909Z,96698.63
2018-09-06T01:35:25.530Z,96693.77
2018-09-06T01:37:53.897Z,96696.22
2018-09-06T01:40:22.308Z,96693.22
2018-09-06T01:42:50.676Z,96695.06
2018-09-06T01:45:19.009Z,96690.98
2018-09-06T01:47:47.356Z,96689.12
2018-09-06T01:50:15.848Z,96692.34
2018-09-06T01:52:44.232Z,96699.05
2018-09-06T01:55:12.565Z,96700.52
2018-09-06T01:57:40.961Z,96714.56
2018-09-06T02:00:09.352Z,96716.72
2018-09-06T02:02:37.704Z,96714.70
2018-09-06T02:05:06.072Z,96714.13
2018-09-06T02:07:34.445Z,96718.27
2018-09-06T02:10:02.833Z,96717.95
2018-09-06T02:12:31.176Z,96702.98
2018-09-06T02:14:59.700Z,96708.75
2018-09-06T02:17:28.064Z,96718.14
2018-09-06T02:19:56.440Z,96706.60
2018-09-06T02:22:24.936Z,96706.23
2018-09-06T02:24:53.269Z,96706.11
2018-09-06T02:27:21.602Z,96708.64
2018-09-06T02:29:50.100Z,96710.41
2018-09-06T02:32:18.885Z,96701.08
2018-09-06T02:34:47.249Z,96695.38
2018-09-06T02:37:15.587Z,96691.62
2018-09-06T02:39:43.947Z,96693.95
2018-09-06T02:42:12.280Z,96689.16
2018-09-06T02:44:40.633Z,96694.57
2018-09-06T02:47:08.964Z,96688.91
2018-09-06T02:49:42.516Z,96682.20
2018-09-06T02:52:10.835Z,96673.89
2018-09-06T02:54:39.200Z,96677.48
2018-09-06T02:57:07.572Z,96669.52
2018-09-06T02:59:35.964Z,96666.06
2018-09-06T03:02:04.304Z,96666.92
2018-09-06T03:04:32.657Z,96668.77
2018-09-06T03:07:00.996Z,96674.64
2018-09-06T03:09:29.379Z,96662.64
2018-09-06T03:12:00.232Z,96661.08
2018-09-06T03:14:28.650Z,96666.46
2018-09-06T03:16:57.088Z,96660.25
2018-09-06T03:19:25.613Z,96653.73
2018-09-06T03:21:54.024Z,96652.81
2018-09-06T03:24:22.383Z,96649.59
2018-09-06T03:26:50.723Z,96643.72
2018-09-06T03:29:19.077Z,96640.02
2018-09-06T03:31:47.428Z,96643.38
2018-09-06T03:34:16.020Z,96642.63
2018-09-06T03:36:44.349Z,96636.90
2018-09-06T03:39:12.700Z,96632.78
2018-09-06T03:41:41.037Z,96629.73
2018-09-06T03:44:09.441Z,96624.34
2018-09-06T03:46:37.768Z,96623.63
2018-09-06T03:49:06.187Z,96622.78
2018-09-06T03:51:34.584Z,96618.99
2018-09-06T03:54:02.960Z,96625.52
2018-09-06T03:56:31.296Z,96624.84
2018-09-06T03:58:59.667Z,96627.46
2018-09-06T04:01:28.231Z,96640.11
2018-09-06T04:03:56.610Z,96636.53
2018-09-06T04:06:24.948Z,96632.94
2018-09-06T04:08:53.320Z,96637.21
2018-09-06T04:11:21.652Z,96639.14
2018-09-06T04:13:50.005Z,96640.37
2018-09-06T04:16:18.344Z,96645.52
2018-09-06T04:18:46.708Z,96642.41
2018-09-06T04:21:15.059Z,96645.52
2018-09-06T04:23:43.441Z,96641.26
2018-09-06T04:26:11.801Z,96636.69
2018-09-06T04:28:40.197Z,96635.08
2018-09-06T04:31:08.594Z,96636.80
2018-09-06T04:33:36.972Z,96636.81
2018-09-06T04:36:05.420Z,96638.50
2018-09-06T04:38:34.233Z,96637.13
2018-09-06T04:41:03.353Z,96640.93
2018-09-06T04:43:32.224Z,96643.26
2018-09-06T04:46:01.614Z,96644.96
2018-09-06T04:48:30.469Z,96644.17
2018-09-06T04:50:58.816Z,96633.22
2018-09-06T04:53:27.167Z,96635.23
2018-09-06T04:55:55.504Z,96628.81
2018-09-06T04:58:23.889Z,96610.09
2018-09-06T05:00:52.215Z,96588.16
2018-09-06T05:03:20.548Z,96600.47
2018-09-06T05:05:48.920Z,96610.98
2018-09-06T05:08:17.304Z,96602.52
2018-09-06T05:10:45.929Z,96599.56
2018-09-06T05:13:14.263Z,96598.46
2018-09-06T05:15:42.668Z,96600.76
2018-09-06T05:18:11.041Z,96607.14
2018-09-06T05:20:39.452Z,96610.21
2018-09-06T05:23:07.796Z,96608.02
2018-09-06T05:25:36.685Z,96595.81
2018-09-06T05:28:05.090Z,96596.07
2018-09-06T05:30:33.487Z,96598.23
2018-09-06T05:33:01.812Z,96595.77
2018-09-06T05:35:30.791Z,96592.77
2018-09-06T05:37:59.136Z,96596.05
2018-09-06T05:40:27.500Z,96591.30
2018-09-06T05:42:55.851Z,96587.61
2018-09-06T05:45:24.213Z,96588.24
2018-09-06T05:47:57.664Z,96586.39
2018-09-06T05:50:26.748Z,96588.05
2018-09-06T05:52:55.093Z,96589.83
2018-09-06T05:55:24.024Z,96589.91
2018-09-06T05:57:52.765Z,96595.38
2018-09-06T06:00:26.311Z,96594.28
2018-09-06T06:02:55.836Z,96601.88
2018-09-06T06:05:24.314Z,96600.86
2018-09-06T06:08:04.020Z,96604.02
2018-09-06T06:10:32.364Z,96606.89
2018-09-06T06:13:00.692Z,96604.06
2018-09-06T06:15:29.077Z,96605.08
2018-09-06T06:17:57.421Z,96603.02
2018-09-06T06:20:25.773Z,96597.81
2018-09-06T06:22:54.133Z,96602.21
2018-09-06T06:25:22.504Z,96601.55
2018-09-06T06:27:50.837Z,96597.81
2018-09-06T06:30:19.184Z,96590.49
2018-09-06T06:32:47.552Z,96593.94
2018-09-06T06:35:15.948Z,96589.13
2018-09-06T06:37:44.276Z,96590.16
2018-09-06T06:40:12.619Z,96588.25
2018-09-06T06:42:40.949Z,96589.44
2018-09-06T06:45:09.729Z,96580.64
2018-09-06T06:47:38.106Z,96584.38
2018-09-06T06:50:06.508Z,96588.36
2018-09-06T06:52:34.971Z,96590.48
2018-09-06T06:55:03.381Z,96590.52
2018-09-06T06:57:31.716Z,96587.20
2018-09-06T07:00:00.048Z,96588.10
2018-09-06T07:02:28.420Z,96582.40
2018-09-06T07:04:57.365Z,96585.22
2018-09-06T07:07:25.736Z,96588.80
2018-09-06T07:09:54.055Z,96586.41
2018-09-06T07:12:22.429Z,96594.30
2018-09-06T07:14:50.760Z,96595.06
2018-09-06T07:17:19.113Z,96592.09
2018-09-06T07:19:47.557Z,96591.80
2018-09-06T07:22:15.923Z,96590.33
2018-09-06T07:24:44.301Z,96592.89
2018-09-06T07:27:12.661Z,96596.64
2018-09-06T07:29:41.100Z,96607.45
2018-09-06T07:32:09.452Z,96603.88
2018-09-06T07:34:37.783Z,96599.05
2018-09-06T07:37:06.156Z,96595.61
2018-09-06T07:39:34.488Z,96597.48
2018-09-06T07:42:02.840Z,96593.13
2018-09-06T07:44:31.175Z,96586.50
2018-09-06T07:46:59.568Z,96584.69
2018-09-06T07:49:27.883Z,96586.43
2018-09-06T07:51:56.230Z,96579.59
2018-09-06T07:54:24.572Z,96585.91
2018-09-06T07:56:52.932Z,96594.33
2018-09-06T07:59:21.260Z,96593.11
2018-09-06T08:01:49.716Z,96597.44
2018-09-06T08:04:18.217Z,96589.13
2018-09-06T08:06:46.624Z,96588.09
2018-09-06T08:09:14.961Z,96585.48
2018-09-06T08:11:43.319Z,96590.09
2018-09-06T08:14:11.677Z,96589.27
2018-09-06T08:16:40.115Z,96588.34
2018-09-06T08:19:08.487Z,96587.61
2018-09-06T08:21:36.833Z,96593.10
2018-09-06T08:24:05.183Z,96593.55
2018-09-06T08:26:33.544Z,96580.88
2018-09-06T08:29:02.249Z,96589.05
2018-09-06T08:31:30.688Z,96591.30
2018-09-06T08:33:58.968Z,96584.98
2018-09-06T08:36:27.352Z,96586.16
2018-09-06T08:38:55.693Z,96585.58
2018-09-06T08:41:24.048Z,96596.67
2018-09-06T08:43:53.072Z,96590.59
2018-09-06T08:46:21.488Z,96594.50
2018-09-06T08:48:50.195Z,96594.41
2018-09-06T08:51:18.580Z,96597.41
2018-09-06T08:53:46.921Z,96584.10
2018-09-06T08:56:15.256Z,96596.58
2018-09-06T08:58:44.052Z,96593.93
2018-09-06T09:01:18.200Z,96595.28
2018-09-06T09:03:46.540Z,96590.46
2018-09-06T09:06:14.938Z,96583.42
2018-09-06T09:08:43.330Z,96583.03
2018-09-06T09:11:11.712Z,96583.58
2018-09-06T09:13:40.105Z,96578.15
2018-09-06T09:16:08.563Z,96579.78
2018-09-06T09:18:36.895Z,96582.42
2018-09-06T09:21:05.240Z,96579.76
2018-09-06T09:23:33.607Z,96580.03
2018-09-06T09:26:01.992Z,96584.05
2018-09-06T09:28:30.353Z,96575.09
2018-09-06T09:30:59.232Z,96571.81
2018-09-06T09:33:27.648Z,96572.64
2018-09-06T09:35:56.087Z,96576.41
2018-09-06T09:38:24.424Z,96566.79
2018-09-06T09:40:52.784Z,96575.66
2018-09-06T09:43:21.490Z,96566.39
2018-09-06T09:45:49.816Z,96568.00
2018-09-06T09:48:18.218Z,96569.98
2018-09-06T09:53:14.112Z,96551.11
2018-09-06T09:55:42.877Z,96554.16
2018-09-06T09:58:11.245Z,96554.69
2018-09-06T10:00:41.116Z,96552.59
2018-09-06T10:03:15.001Z,96556.74
2018-09-06T10:05:54.903Z,96557.02
2018-09-06T10:08:28.452Z,96550.97
2018-09-06T10:10:56.877Z,96554.02
2018-09-06T10:13:25.646Z,96552.96
2018-09-06T10:15:54.320Z,96543.25
2018-09-06T10:18:22.752Z,96545.22
2018-09-06T10:20:51.111Z,96544.59
2018-09-06T10:23:19.524Z,96541.84
2018-09-06T10:25:47.867Z,96551.18
2018-09-06T10:28:16.269Z,96543.00
2018-09-06T10:30:44.940Z,96539.16
2018-09-06T10:33:13.288Z,96540.87
2018-09-06T10:35:41.632Z,96543.36
2018-09-06T10:38:10.020Z,96547.34
2018-09-06T10:40:38.608Z,96538.23
2018-09-06T10:43:07.288Z,96530.71
2018-09-06T10:45:35.753Z,96542.06
2018-09-06T10:48:04.144Z,96536.75
2018-09-06T10:50:32.864Z,96530.16
2018-09-06T10:53:01.256Z,96519.84
2018-09-06T10:55:29.628Z,96526.44
2018-09-06T10:57:58.131Z,96516.04
2018-09-06T11:00:28.124Z,96514.34
2018-09-06T11:02:56.989Z,96518.63
2018-09-06T11:05:25.397Z,96520.05
2018-09-06T11:07:54.269Z,96529.64
2018-09-06T11:10:22.880Z,96533.67
2018-09-06T11:12:51.593Z,96526.64
2018-09-06T11:15:20.226Z,96529.91
2018-09-06T11:17:48.579Z,96520.47
2018-09-06T11:20:16.941Z,96519.22
2018-09-06T11:22:45.344Z,96509.13
2018-09-06T11:25:13.660Z,96518.34
2018-09-06T11:27:42.386Z,96515.52
2018-09-06T11:30:10.748Z,96506.05
2018-09-06T11:32:39.108Z,96506.05
2018-09-06T11:35:07.537Z,96507.19
2018-09-06T11:37:35.900Z,96503.77
2018-09-06T11:40:04.403Z,96504.62
2018-09-06T11:42:32.752Z,96512.96
2018-09-06T11:45:01.136Z,96502.00
2018-09-06T11:47:29.764Z,96509.81
2018-09-06T11:49:57.985Z,96512.16
2018-09-06T11:52:26.376Z,96501.53
2018-09-06T11:54:54.730Z,96517.16
2018-09-06T11:57:23.121Z,96514.98
2018-09-06T11:59:51.513Z,96509.38
2018-09-06T12:02:19.853Z,96509.02
2018-09-06T12:04:48.352Z,96506.72
2018-09-06T12:07:16.712Z,96504.36
2018-09-06T12:09:45.109Z,96500.45
2018-09-06T12:12:13.468Z,96505.44
2018-09-06T12:14:41.840Z,96505.60
2018-09-06T12:17:10.400Z,96508.12
2018-09-06T12:19:38.791Z,96504.80
2018-09-06T12:22:07.209Z,96501.36
2018-09-06T12:24:35.569Z,96502.63
2018-09-06T12:27:05.034Z,96492.31
2018-09-06T12:29:33.412Z,96482.59
2018-09-06T12:32:01.799Z,96481.67
2018-09-06T12:34:30.171Z,96485.20
2018-09-06T12:36:58.549Z,96486.91
2018-09-06T12:39:26.944Z,96479.00
2018-09-06T12:41:55.353Z,96483.39
2018-09-06T12:44:23.725Z,96481.09
2018-09-06T12:46:52.075Z,96482.09
2018-09-06T12:49:20.476Z,96484.95
2018-09-06T12:51:48.827Z,96484.59
2018-09-06T12:54:17.200Z,96491.47
2018-09-06T12:56:45.864Z,96489.73
2018-09-06T12:59:14.255Z,96486.45
2018-09-06T13:01:42.617Z,96485.67
2018-09-06T13:04:10.968Z,96485.81
2018-09-06T13:06:39.381Z,96479.41
2018-09-06T13:09:08.232Z,96469.01
2018-09-06T13:11:37.196Z,96472.98
2018-09-06T13:14:05.580Z,96477.81
2018-09-06T13:16:33.995Z,96471.45
2018-09-06T13:19:02.620Z,96469.50
2018-09-06T13:21:30.985Z,96466.70
2018-09-06T13:23:59.324Z,96472.70
2018-09-06T13:26:27.656Z,96477.09
2018-09-06T13:28:55.996Z,96481.17
2018-09-06T13:31:24.461Z,96478.58
2018-09-06T13:33:52.816Z,96474.56
2018-09-06T13:36:21.170Z,96479.17
2018-09-06T13:38:49.492Z,96479.98
2018-09-06T13:41:17.856Z,96479.31
2018-09-06T13:43:46.190Z,96469.55
2018-09-06T13:46:14.572Z,96459.98
2018-09-06T13:48:42.897Z,96463.46
2018-09-06T13:51:11.257Z,96457.80
2018-09-06T13:53:39.591Z,96460.86
2018-09-06T13:56:08.136Z,96463.39
2018-09-06T13:58:36.463Z,96456.98
2018-09-06T14:01:04.849Z,96457.17
2018-09-06T14:03:33.183Z,96453.27
2018-09-06T14:06:01.558Z,96450.69
2018-09-06T14:08:29.888Z,96457.58
2018-09-06T14:10:58.252Z,96452.80
2018-09-06T14:13:26.616Z,96459.25
2018-09-06T14:15:54.960Z,96454.27
2018-09-06T14:18:23.328Z,96455.02
2018-09-06T14:20:51.720Z,96452.53
2018-09-06T14:23:20.048Z,96455.80
2018-09-06T14:25:48.409Z,96453.33
2018-09-06T14:28:16.772Z,96453.22
2018-09-06T14:30:45.120Z,96452.99
2018-09-06T14:33:13.456Z,96441.34
2018-09-06T14:35:41.844Z,96429.38
2018-09-06T14:38:11.011Z,96423.37
2018-09-06T14:40:39.331Z,96434.11
2018-09-06T14:43:07.668Z,96436.91
2018-09-06T14:45:36.016Z,96432.86
2018-09-06T14:48:04.979Z,96428.77
2018-09-06T14:50:33.325Z,96426.58
2018-09-06T14:53:01.773Z,96424.56
2018-09-06T14:55:30.133Z,96425.02
2018-09-06T14:57:58.480Z,96428.44
2018-09-06T15:00:26.832Z,96428.25
2018-09-06T15:02:56.319Z,96419.65
2018-09-06T15:05:24.671Z,96416.44
2018-09-06T15:07:53.190Z,96424.73
2018-09-06T15:10:21.553Z,96419.19
2018-09-06T15:12:49.917Z,96422.23
2018-09-06T15:15:18.340Z,96427.02
2018-09-06T15:17:46.672Z,96429.19
2018-09-06T15:20:15.033Z,96434.05
2018-09-06T15:22:43.365Z,96427.30
2018-09-06T15:25:12.176Z,96427.04
2018-09-06T15:27:40.550Z,96429.78
2018-09-06T15:30:08.941Z,96429.78
2018-09-06T15:32:37.280Z,96430.69
2018-09-06T15:35:05.712Z,96432.33
2018-09-06T15:37:34.060Z,96431.91
2018-09-06T15:40:02.407Z,96430.90
2018-09-06T15:42:30.768Z,96429.09
2018-09-06T15:44:59.125Z,96429.52
2018-09-06T15:47:28.063Z,96432.91
2018-09-06T15:49:56.462Z,96437.72
2018-09-06T15:52:24.761Z,96434.27
2018-09-06T15:54:53.105Z,96445.22
2018-09-06T15:57:21.468Z,96440.66
2018-09-06T15:59:49.804Z,96441.58
2018-09-06T16:02:28.092Z,96440.66
2018-09-06T16:05:00.099Z,96444.06
2018-09-06T16:07:31.831Z,96446.89
2018-09-06T16:10:03.313Z,96453.60
2018-09-06T16:12:33.355Z,96452.64
2018-09-06T16:15:04.022Z,96455.02
2018-09-06T16:17:37.552Z,96454.92
2018-09-06T16:20:10.133Z,96456.32
2018-09-06T16:22:40.765Z,96458.94
2018-09-06T16:25:16.016Z,96468.69
2018-09-06T16:27:51.406Z,96462.11
2018-09-06T16:30:26.156Z,96459.94
2018-09-06T16:32:56.697Z,96460.78
2018-09-06T16:35:27.826Z,96460.05
2018-09-06T16:38:00.500Z,96467.60
2018-09-06T16:40:33.410Z,96464.13
2018-09-06T16:43:04.452Z,96469.63
2018-09-06T16:45:34.982Z,96476.33
2018-09-06T16:48:08.171Z,96467.88
2018-09-06T16:50:38.592Z,96463.10
2018-09-06T16:53:11.104Z,96464.29
2018-09-06T16:55:40.900Z,96456.98
2018-09-06T16:58:11.191Z,96470.24
2018-09-06T17:00:45.646Z,96468.64
2018-09-06T17:03:19.201Z,96464.27
2018-09-06T17:05:49.949Z,96456.11
2018-09-06T17:08:22.113Z,96466.04
2018-09-06T17:10:53.176Z,96458.75
2018-09-06T17:13:24.992Z,96458.51
2018-09-06T17:15:55.784Z,96452.74
2018-09-06T17:18:27.176Z,96451.65
2018-09-06T17:21:01.168Z,96445.98
2018-09-06T17:23:31.410Z,96437.91
2018-09-06T17:26:05.569Z,96436.91
2018-09-06T17:28:38.883Z,96428.61
2018-09-06T17:31:11.176Z,96435.80
2018-09-06T17:40:49.118Z,96446.36
2018-09-06T17:43:22.432Z,96446.44
2018-09-06T17:45:52.175Z,96440.75
2018-09-06T17:48:22.829Z,96441.39
2018-09-06T17:50:54.802Z,96449.91
2018-09-06T17:53:26.497Z,96447.93
2018-09-06T17:55:56.870Z,96451.27
2018-09-06T17:58:29.753Z,96440.89
2018-09-06T18:04:19.172Z,96444.94
2018-09-06T18:06:49.479Z,96446.63
2018-09-06T18:09:21.655Z,96454.29
2018-09-06T18:11:55.365Z,96452.41
2018-09-06T18:14:32.597Z,96463.38
2018-09-06T18:17:05.673Z,96461.94
2018-09-06T18:19:39.386Z,96464.98
2018-09-06T18:22:13.487Z,96470.05
2018-09-06T18:24:49.660Z,96463.31
2018-09-06T18:27:19.609Z,96480.95
2018-09-06T18:29:50.764Z,96490.48
2018-09-06T18:32:25.840Z,96476.91
2018-09-06T18:35:00.987Z,96485.33
2018-09-06T18:37:30.723Z,96475.88
2018-09-06T18:40:03.917Z,96481.51
2018-09-06T18:42:37.312Z,96489.55
2018-09-06T18:45:08.083Z,96488.91
2018-09-06T18:47:42.250Z,96488.05
2018-09-06T18:50:11.868Z,96492.89
2018-09-06T18:52:43.651Z,96492.50
2018-09-06T18:55:13.591Z,96490.48
2018-09-06T18:57:46.831Z,96499.67
2018-09-06T19:00:23.362Z,96498.62
2018-09-06T19:02:55.243Z,96500.09
2018-09-06T19:05:25.362Z,96504.33
2018-09-06T19:07:55.792Z,96505.94
2018-09-06T19:10:25.590Z,96500.23
2018-09-06T19:12:56.598Z,96504.77
2018-09-06T19:15:27.267Z,96501.01
2018-09-06T19:17:57.028Z,96505.19
2018-09-06T19:20:28.611Z,96505.58
2018-09-06T19:23:00.260Z,96508.03
2018-09-06T19:25:31.904Z,96508.28
2018-09-06T19:28:05.508Z,96512.23
2018-09-06T19:30:35.211Z,96506.68
2018-09-06T19:33:06.291Z,96500.28
2018-09-06T19:35:35.907Z,96505.47
2018-09-06T19:38:08.179Z,96513.75
2018-09-06T19:40:41.638Z,96509.81
2018-09-06T19:43:12.619Z,96515.02
2018-09-06T19:45:46.626Z,96512.66
2018-09-06T19:48:20.137Z,96513.58
2018-09-06T19:50:50.664Z,96517.52
2018-09-06T19:53:21.044Z,96521.12
2018-09-06T19:55:51.171Z,96525.11
2018-09-06T19:58:21.845Z,96529.30
2018-09-06T20:00:54.659Z,96531.76
2018-09-06T20:03:31.742Z,96531.20
2018-09-06T20:06:05.481Z,96537.31
2018-09-06T20:08:37.648Z,96535.39
2018-09-06T20:11:12.280Z,96541.01
2018-09-06T20:13:43.661Z,96538.55
2018-09-06T20:16:14.735Z,96537.23
2018-09-06T20:18:45.327Z,96544.07
2018-09-06T20:21:22.812Z,96539.58
2018-09-06T20:23:58.006Z,96539.58
2018-09-06T20:26:28.100Z,96543.64
2018-09-06T20:28:56.452Z,96544.02
2018-09-06T20:31:24.836Z,96546.19
2018-09-06T20:33:53.837Z,96536.12
2018-09-06T20:36:22.439Z,96540.59
2018-09-06T20:38:50.932Z,96537.90
2018-09-06T20:41:19.267Z,96547.09
2018-09-06T20:43:47.636Z,96542.37
2018-09-06T20:46:15.980Z,96545.88
2018-09-06T20:48:44.335Z,96552.28
2018-09-06T20:51:12.668Z,96547.38
2018-09-06T20:53:41.061Z,96544.59
2018-09-06T20:56:09.392Z,96551.45
2018-09-06T20:58:37.758Z,96556.56
2018-09-06T21:01:06.145Z,96553.68
2018-09-06T21:03:34.488Z,96554.70
2018-09-06T21:06:03.079Z,96557.02
2018-09-06T21:08:31.895Z,96550.78
2018-09-06T21:11:00.270Z,96549.59
2018-09-06T21:13:28.624Z,96564.63
2018-09-06T21:15:57.008Z,96560.27
2018-09-06T21:18:25.367Z,96554.74
2018-09-06T21:20:53.712Z,96558.91
2018-09-06T21:23:22.060Z,96553.20
2018-09-06T21:25:50.655Z,96559.06
2018-09-06T21:28:18.981Z,96557.81
2018-09-06T21:30:47.409Z,96562.83
2018-09-06T21:33:15.772Z,96569.32
2018-09-06T21:35:44.144Z,96573.93
2018-09-06T21:38:12.472Z,96572.25
2018-09-06T21:40:40.836Z,96577.48
2018-09-06T21:43:09.168Z,96573.61
2018-09-06T21:45:37.545Z,96569.68
2018-09-06T21:48:05.892Z,96570.05
2018-09-06T21:50:34.248Z,96561.33
2018-09-06T21:53:02.567Z,96566.50
2018-09-06T21:55:30.943Z,96557.45
2018-09-06T21:57:59.772Z,96557.09
2018-09-06T22:00:28.192Z,96556.41
2018-09-06T22:03:01.744Z,96557.55
2018-09-06T22:05:30.089Z,96564.73
2018-09-06T22:07:58.428Z,96565.47
2018-09-06T22:10:26.781Z,96562.47
2018-09-06T22:12:55.121Z,96558.21
2018-09-06T22:15:23.525Z,96563.27
2018-09-06T22:17:51.868Z,96568.84
2018-09-06T22:20:20.233Z,96564.51
2018-09-06T22:22:48.572Z,96574.33
2018-09-06T22:25:16.939Z,96570.41
2018-09-06T22:27:45.284Z,96564.27
2018-09-06T22:30:13.784Z,96565.33
2018-09-06T22:32:42.168Z,96559.21
2018-09-06T22:35:10.534Z,96560.20
2018-09-06T22:37:38.880Z,96552.95
2018-09-06T22:40:07.252Z,96555.19
2018-09-06T22:42:35.724Z,96557.34
2018-09-06T22:45:04.223Z,96552.80
2018-09-06T22:47:32.607Z,96556.46
2018-09-06T22:50:00.959Z,96553.34
2018-09-06T22:52:29.285Z,96553.44
2018-09-06T22:54:57.641Z,96554.20
2018-09-06T22:57:25.975Z,96559.25
2018-09-06T22:59:54.536Z,96558.84
2018-09-06T23:02:23.593Z,96554.64
2018-09-06T23:04:51.951Z,96557.53
2018-09-06T23:07:20.331Z,96564.12
2018-09-06T23:09:48.744Z,96557.78
2018-09-06T23:12:17.067Z,96562.39
2018-09-06T23:14:45.424Z,96565.62
2018-09-06T23:17:13.764Z,96559.36
2018-09-06T23:19:42.152Z,96555.19
2018-09-06T23:22:10.496Z,96551.75
2018-09-06T23:24:38.848Z,96551.60
2018-09-06T23:27:07.619Z,96554.78
2018-09-06T23:29:35.981Z,96553.80
2018-09-06T23:32:04.332Z,96550.57
2018-09-06T23:34:35.794Z,96557.89
2018-09-06T23:37:05.392Z,96554.16
2018-09-06T23:39:33.975Z,96559.95
2018-09-06T23:42:02.560Z,96556.81
2018-09-06T23:44:30.933Z,96560.73
2018-09-06T23:46:59.425Z,96560.61
2018-09-06T23:49:28.008Z,96560.93
2018-09-06T23:51:56.356Z,96555.00
2018-09-06T23:54:24.720Z,96550.78
2018-09-06T23:56:53.118Z,96551.53
2018-09-06T23:59:21.432Z,96548.89
